Estes Park, CO

11:44 AM MDT on June 03, 2015 (GMT -0600)
Erie Municipal Airport | | Change Station
CLOSE
Current Station
Airport
Location: Erie,
Elevation: 5128 ft
Nearby Weather Stations
Active Advisory: Flood Advisory

Elev 5128 ft 40.01 °N, 105.05 °W | Updated 14 minutes ago

Clear
Clear
66 °F
Feels Like 66 °F
N
0
Wind Variable Wind from North

Today
High -- | Low -- °F
--% Chance of Precip.
Yesterday
High -- | Low -- °F
Precip. -- in
5:33 AM 8:27 PM
Full, 99% visible
Pressure 30.07 in
Visibility 10.0 miles
Clouds Scattered Clouds 2200 ft
Scattered Clouds 4700 ft
Dew Point 54 °F
Humidity 65%
Rainfall 0.00 in
Snow Depth Not available.
UV 9 out of 12
Pollen 7.80 out of 12
Air Quality Not available.
Flu Activity Sporadic
METAR KEIK 031730Z AUTO 00000KT 10SM SCT022 SCT047 19/12 A3007 RMK AO2 T01900122

More Conditions Fewer Conditions

Pressure 30.07 in
Visibility 10.0 miles
Clouds Scattered Clouds 2200 ft
Scattered Clouds 4700 ft
Dew Point 54 °F
Humidity 65%
Rainfall 0.00 in
Snow Depth Not available.
UV 9 out of 12
Pollen 7.80 out of 12
Air Quality Not available.
Flu Activity Sporadic
METAR KEIK 031730Z AUTO 00000KT 10SM SCT022 SCT047 19/12 A3007 RMK AO2 T01900122

More Conditions Fewer Conditions

10-Day Weather Forecast

×

Almanac

Astronomy

Jun. 03, 2015 Rise Set
Actual Time
Civil Twilight
Nautical Twilight
Astronomical Twilight
Moon
Length of Visible Light
Length of Day
Tomorrow will be .
, % of the Moon is Illuminated

Today's Extremes

State Highs State Lows

Community

WunderPhotos

Upload Photos

1,826,264 photos uploaded!

WunderBlogs® & News

Nearby

Air Quality

  Air Quality AQ Index Pollutant
Not available.

Snow Depth

Station Depth Elevation

Earthquake Activity

City Distance Mag. Time & Date
Minimum magnitude displayed is 2.5.

Coastal Water Temperatures

Place Temperature

Stations

Nearby Weather Stations

Station Location Temp. Windchill Dew Point Humidity Wind Precip. Elev Updated Type
                   
Flood Advisory
Statement as of 9:44 AM MDT on June 03, 2015

The Flood Advisory continues for
the Cache la poudre river at the canyon mouth.
* Until further notice.
* At 8:45 am Wednesday the stage was 6.2 feet.
* Flood stage is 7.5 feet.
* Forecast... the river will rise to near 6.8 feet Friday morning.
* Impact... at 6.0 feet... water is over the bike path and trail
along the river in and near Fort Collins.


Lat... Lon 4071 10524 4067 10523 4066 10519 4062 10513
4061 10514 4067 10525